Time;durP1;ratioP1;P1;durP2;ratioP2;P2;SDS_P1;SDS_P2;PMS_P1;PMS_P2;Temp;Humidity;BMP_temperature;BMP_pressure;BME280_temperature;BME280_humidity;BME280_pressure;Samples;Min_cycle;Max_cycle;Signal;HPM_P1;HPM_P2
2022/03/06 00:00:40;;;;;;;31.08;20.90;;;2.80;64.60;;;;;;5112933;28;20035;-75
2022/03/06 00:03:06;;;;;;;34.10;20.95;;;2.80;64.50;;;;;;5113875;28;20024;-75
2022/03/06 00:05:32;;;;;;;31.63;20.70;;;2.70;65.10;;;;;;5113201;28;20030;-75
2022/03/06 00:07:59;;;;;;;34.67;21.17;;;2.70;65.30;;;;;;5113698;28;20472;-76
2022/03/06 00:10:26;;;;;;;30.17;20.85;;;2.70;65.40;;;;;;5113814;28;20410;-75
2022/03/06 00:12:51;;;;;;;31.30;20.27;;;2.70;65.60;;;;;;5113726;28;20131;-75
2022/03/06 00:15:18;;;;;;;32.78;21.33;;;2.70;65.90;;;;;;5113077;28;20492;-76
2022/03/06 00:17:44;;;;;;;32.40;21.85;;;2.70;66.10;;;;;;5112383;28;20110;-76
2022/03/06 00:20:10;;;;;;;35.30;22.58;;;2.70;66.20;;;;;;5113192;28;20100;-76
2022/03/06 00:22:37;;;;;;;32.97;21.77;;;2.60;66.40;;;;;;5112437;28;20026;-74
2022/03/06 00:25:03;;;;;;;36.30;22.55;;;2.60;66.60;;;;;;5112888;28;20106;-76
2022/03/06 00:27:29;;;;;;;35.55;22.45;;;2.60;66.70;;;;;;5112240;28;20038;-76
2022/03/06 00:29:55;;;;;;;34.70;21.88;;;2.60;67.20;;;;;;5112952;28;20028;-76
2022/03/06 00:32:20;;;;;;;35.17;22.42;;;2.50;67.20;;;;;;5112579;28;20028;-76
2022/03/06 00:34:48;;;;;;;35.05;22.98;;;2.60;67.40;;;;;;5111924;28;20032;-76
2022/03/06 00:37:14;;;;;;;32.63;22.27;;;2.50;67.60;;;;;;5112785;28;20020;-76
2022/03/06 00:39:41;;;;;;;36.03;23.27;;;2.50;67.60;;;;;;5112410;28;20030;-76
2022/03/06 00:42:07;;;;;;;37.58;24.70;;;2.50;68.10;;;;;;5112781;28;20353;-76
2022/03/06 00:44:33;;;;;;;36.53;24.48;;;2.50;68.20;;;;;;5113712;28;20055;-76
2022/03/06 00:46:58;;;;;;;37.75;23.40;;;2.40;68.50;;;;;;5116681;28;20063;-76
2022/03/06 00:49:24;;;;;;;35.60;23.30;;;2.40;68.60;;;;;;5116211;28;20169;-79
2022/03/06 00:51:50;;;;;;;36.92;24.17;;;2.40;69.00;;;;;;5116758;28;20084;-76
2022/03/06 00:54:16;;;;;;;35.33;23.40;;;2.40;69.00;;;;;;5116454;28;20024;-76
2022/03/06 00:56:41;;;;;;;34.88;23.75;;;2.40;69.10;;;;;;5115851;28;20031;-76
2022/03/06 00:59:07;;;;;;;37.13;23.25;;;2.40;69.40;;;;;;5115830;28;20028;-76
2022/03/06 01:01:34;;;;;;;37.13;23.42;;;2.40;69.40;;;;;;5116084;28;20019;-76
2022/03/06 01:03:59;;;;;;;38.40;25.25;;;2.40;69.80;;;;;;5116331;28;20472;-76
2022/03/06 01:06:26;;;;;;;34.35;23.80;;;2.40;70.20;;;;;;5116388;28;20034;-79
2022/03/06 01:08:52;;;;;;;35.40;24.35;;;2.40;70.00;;;;;;5115355;28;20036;-76
2022/03/06 01:11:18;;;;;;;37.58;24.77;;;2.40;69.90;;;;;;5116479;28;20028;-76
2022/03/06 01:13:43;;;;;;;37.33;24.13;;;2.40;69.90;;;;;;5115748;28;20027;-76
2022/03/06 01:16:09;;;;;;;38.08;24.73;;;2.40;69.90;;;;;;5115860;28;20031;-76
2022/03/06 01:18:35;;;;;;;41.20;24.08;;;2.40;70.00;;;;;;5115417;28;20024;-76
2022/03/06 01:21:00;;;;;;;34.90;24.40;;;2.30;70.20;;;;;;5116310;28;20027;-76
2022/03/06 01:23:28;;;;;;;37.63;23.52;;;2.30;70.50;;;;;;5115887;28;20115;-76
2022/03/06 01:25:54;;;;;;;37.20;23.90;;;2.40;70.50;;;;;;5116244;28;20026;-76
2022/03/06 01:28:19;;;;;;;38.72;24.30;;;2.40;70.60;;;;;;5116036;28;20031;-76
2022/03/06 01:30:45;;;;;;;37.33;25.00;;;2.40;70.60;;;;;;5115377;28;20023;-76
2022/03/06 01:33:11;;;;;;;37.70;24.55;;;2.40;70.30;;;;;;5116063;27;20110;-76
2022/03/06 01:35:55;;;;;;;41.03;24.65;;;2.40;70.50;;;;;;5115105;28;20425;-76
2022/03/06 01:38:21;;;;;;;39.38;25.95;;;2.40;70.50;;;;;;5116938;28;20468;-76
2022/03/06 01:40:46;;;;;;;35.72;24.02;;;2.40;70.60;;;;;;5116396;28;20070;-76
2022/03/06 01:43:31;;;;;;;36.83;23.98;;;2.40;70.60;;;;;;5117335;28;20444;-76
2022/03/06 01:45:56;;;;;;;37.75;25.40;;;2.40;70.70;;;;;;5128645;28;20020;-75
2022/03/06 01:48:22;;;;;;;35.00;23.90;;;2.40;70.90;;;;;;5129528;28;20035;-76
2022/03/06 01:50:48;;;;;;;39.47;24.20;;;2.40;71.00;;;;;;5123884;28;20259;-76
2022/03/06 01:53:14;;;;;;;38.70;24.42;;;2.40;71.00;;;;;;5117960;27;20020;-77
2022/03/06 01:55:42;;;;;;;36.15;24.25;;;2.40;70.80;;;;;;5114700;28;20415;-77
2022/03/06 01:58:10;;;;;;;38.25;23.58;;;2.40;70.70;;;;;;5116111;28;20038;-76
2022/03/06 02:00:39;;;;;;;37.88;24.13;;;2.40;70.80;;;;;;5114107;28;20461;-76
2022/03/06 02:03:05;;;;;;;36.50;24.48;;;2.40;70.50;;;;;;5115378;28;20463;-76
2022/03/06 02:05:31;;;;;;;37.92;24.70;;;2.40;70.40;;;;;;5114607;28;20047;-76
2022/03/06 02:07:57;;;;;;;36.38;22.83;;;2.40;70.20;;;;;;5115554;28;20452;-76
2022/03/06 02:10:23;;;;;;;35.33;23.48;;;2.40;70.20;;;;;;5115446;28;20073;-76
2022/03/06 02:12:49;;;;;;;34.20;23.27;;;2.40;70.10;;;;;;5114811;28;20031;-76
2022/03/06 02:15:16;;;;;;;35.33;23.15;;;2.30;69.90;;;;;;5115251;28;20034;-74
2022/03/06 02:17:42;;;;;;;38.85;24.17;;;2.30;70.20;;;;;;5114596;28;20375;-76
2022/03/06 02:20:14;;;;;;;32.50;22.25;;;2.30;70.20;;;;;;5115244;28;20027;-76
2022/03/06 02:22:42;;;;;;;36.92;24.10;;;2.30;70.70;;;;;;5114577;28;20027;-76
2022/03/06 02:25:11;;;;;;;36.20;23.67;;;2.30;71.00;;;;;;5115149;28;20026;-75
2022/03/06 02:27:37;;;;;;;32.63;21.67;;;2.20;71.00;;;;;;5114526;28;20024;-76
2022/03/06 02:30:08;;;;;;;35.80;22.42;;;2.20;70.10;;;;;;5114989;28;20024;-75
2022/03/06 02:32:34;;;;;;;33.83;22.75;;;2.20;69.70;;;;;;5113335;28;20060;-76
2022/03/06 02:35:00;;;;;;;34.95;22.52;;;2.20;69.50;;;;;;5114802;27;20078;-76
2022/03/06 02:37:26;;;;;;;34.80;22.33;;;2.20;69.40;;;;;;5114933;28;20437;-75
2022/03/06 02:39:51;;;;;;;34.97;22.33;;;2.20;68.90;;;;;;5113959;28;20032;-75
2022/03/06 02:42:31;;;;;;;35.88;22.13;;;2.20;69.00;;;;;;5114739;28;20058;-75
2022/03/06 02:45:00;;;;;;;35.35;22.58;;;2.20;68.70;;;;;;5115054;28;20046;-75
2022/03/06 02:47:26;;;;;;;35.38;22.45;;;2.20;68.80;;;;;;5114803;28;20076;-75
2022/03/06 02:49:52;;;;;;;34.25;22.40;;;2.20;68.80;;;;;;5113715;28;20327;-75
2022/03/06 02:52:18;;;;;;;31.23;21.17;;;2.20;69.00;;;;;;5114274;28;20023;-75
2022/03/06 02:54:44;;;;;;;34.03;22.35;;;2.20;68.80;;;;;;5113708;28;20130;-75
2022/03/06 02:57:10;;;;;;;34.40;22.45;;;2.20;69.10;;;;;;5114115;28;20028;-75
2022/03/06 02:59:37;;;;;;;35.10;22.40;;;2.20;69.10;;;;;;5113790;28;20034;-76
2022/03/06 03:02:04;;;;;;;32.22;21.92;;;2.20;69.20;;;;;;5114269;28;20024;-75
2022/03/06 03:04:31;;;;;;;37.00;22.55;;;2.20;69.20;;;;;;5114309;28;20032;-75
2022/03/06 03:06:56;;;;;;;34.05;21.52;;;2.20;68.70;;;;;;5113334;28;20024;-75
2022/03/06 03:09:22;;;;;;;32.30;22.30;;;2.20;68.90;;;;;;5113898;28;20035;-75
2022/03/06 03:11:54;;;;;;;34.80;22.88;;;2.10;69.30;;;;;;5113069;28;20473;-75
2022/03/06 03:14:20;;;;;;;35.72;21.90;;;2.20;69.30;;;;;;5113911;28;20110;-74
2022/03/06 03:16:46;;;;;;;34.72;22.25;;;2.10;69.00;;;;;;5112302;28;20169;-74
2022/03/06 03:19:12;;;;;;;31.88;20.98;;;2.10;69.20;;;;;;5113856;28;20039;-75
2022/03/06 03:21:38;;;;;;;36.92;22.10;;;2.10;69.30;;;;;;5112076;28;20452;-75
2022/03/06 03:24:04;;;;;;;36.30;22.42;;;2.10;69.50;;;;;;5113471;28;20035;-75
2022/03/06 03:26:30;;;;;;;35.13;22.27;;;2.10;69.30;;;;;;5113784;28;20027;-75
2022/03/06 03:28:55;;;;;;;32.70;21.70;;;2.10;69.10;;;;;;5111872;28;20051;-75
2022/03/06 03:31:21;;;;;;;35.88;22.52;;;2.10;69.00;;;;;;5113638;28;20027;-75
2022/03/06 03:33:47;;;;;;;33.97;22.60;;;2.10;68.80;;;;;;5112873;28;20085;-76
2022/03/06 03:36:13;;;;;;;31.27;21.05;;;2.10;68.90;;;;;;5113245;28;20074;-75
2022/03/06 03:38:40;;;;;;;34.75;22.15;;;2.10;68.60;;;;;;5112998;28;20031;-75
2022/03/06 03:41:06;;;;;;;32.67;21.45;;;2.10;68.60;;;;;;5113534;28;20076;-75
2022/03/06 03:43:51;;;;;;;34.55;21.80;;;2.10;68.60;;;;;;5113444;28;20111;-75
2022/03/06 03:46:18;;;;;;;37.33;21.85;;;2.10;68.30;;;;;;5114102;28;20028;-75
2022/03/06 03:48:44;;;;;;;31.38;20.70;;;2.10;69.00;;;;;;5113385;28;20032;-75
2022/03/06 03:51:10;;;;;;;33.72;22.13;;;2.10;69.00;;;;;;5113396;28;20023;-76
2022/03/06 03:53:36;;;;;;;34.35;22.77;;;2.10;68.80;;;;;;5113164;28;20027;-75
2022/03/06 03:56:04;;;;;;;35.22;21.33;;;2.10;68.90;;;;;;5113564;28;20047;-74
2022/03/06 03:58:31;;;;;;;34.28;20.85;;;2.10;69.00;;;;;;5113138;28;20532;-75
2022/03/06 04:00:57;;;;;;;32.08;20.60;;;2.00;68.70;;;;;;5112666;28;20412;-75
2022/03/06 04:03:23;;;;;;;29.85;21.33;;;2.00;69.10;;;;;;5113422;28;20072;-75
2022/03/06 04:05:49;;;;;;;32.97;20.80;;;2.00;68.70;;;;;;5112317;28;20033;-75
2022/03/06 04:08:15;;;;;;;34.08;21.00;;;2.10;68.60;;;;;;5113329;27;20082;-75
2022/03/06 04:10:41;;;;;;;33.35;20.65;;;2.00;68.30;;;;;;5112556;28;20027;-75
2022/03/06 04:13:07;;;;;;;30.50;19.55;;;2.10;68.00;;;;;;5112025;28;20083;-75
2022/03/06 04:15:32;;;;;;;33.00;20.83;;;2.00;67.70;;;;;;5113010;28;20027;-75
2022/03/06 04:17:58;;;;;;;33.15;20.48;;;2.00;67.80;;;;;;5112406;28;20610;-75
2022/03/06 04:20:24;;;;;;;30.70;19.27;;;2.00;67.60;;;;;;5111000;28;20352;-75
2022/03/06 04:22:50;;;;;;;30.23;21.00;;;2.00;67.90;;;;;;5112356;28;20372;-75
2022/03/06 04:25:16;;;;;;;29.17;20.42;;;2.00;67.80;;;;;;5112838;28;20035;-75
2022/03/06 04:27:42;;;;;;;34.25;20.98;;;2.00;67.40;;;;;;5111888;28;20028;-76
2022/03/06 04:30:09;;;;;;;31.60;21.42;;;2.00;67.40;;;;;;5112514;28;20024;-75
2022/03/06 04:32:35;;;;;;;34.80;21.52;;;2.00;67.50;;;;;;5112677;28;20023;-75
2022/03/06 04:35:01;;;;;;;31.27;20.85;;;2.00;67.60;;;;;;5112297;28;20022;-75
2022/03/06 04:37:26;;;;;;;31.80;20.52;;;2.00;67.60;;;;;;5112935;28;20457;-75
2022/03/06 04:39:52;;;;;;;35.17;22.42;;;2.00;67.60;;;;;;5112195;28;20028;-75
2022/03/06 04:42:18;;;;;;;31.85;20.30;;;2.00;67.50;;;;;;5112759;28;20043;-75
2022/03/06 04:44:43;;;;;;;33.10;20.40;;;2.00;67.40;;;;;;5111699;28;20023;-75
2022/03/06 04:47:09;;;;;;;31.48;20.10;;;2.00;67.30;;;;;;5112409;28;20034;-75
2022/03/06 04:49:34;;;;;;;30.92;20.10;;;2.00;67.00;;;;;;5112330;28;20035;-75
2022/03/06 04:52:00;;;;;;;32.47;20.33;;;2.00;66.80;;;;;;5112136;28;20778;-75
2022/03/06 04:54:26;;;;;;;32.72;21.83;;;2.00;67.10;;;;;;5112512;28;20524;-75
2022/03/06 04:56:52;;;;;;;30.00;20.00;;;2.00;67.10;;;;;;5112110;28;20368;-74
2022/03/06 04:59:17;;;;;;;34.33;21.63;;;2.00;66.90;;;;;;5110938;28;20405;-74
2022/03/06 05:01:43;;;;;;;29.25;20.15;;;2.00;66.80;;;;;;5111915;28;20023;-75
2022/03/06 05:04:09;;;;;;;31.15;19.27;;;2.00;66.80;;;;;;5112854;28;20039;-75
2022/03/06 05:06:35;;;;;;;32.15;20.63;;;2.00;66.60;;;;;;5112288;28;20027;-74
2022/03/06 05:09:01;;;;;;;33.53;20.88;;;2.00;66.70;;;;;;5111974;28;20263;-74
2022/03/06 05:11:28;;;;;;;28.33;19.52;;;2.00;66.60;;;;;;5112544;28;20457;-74
2022/03/06 05:13:54;;;;;;;30.20;19.67;;;2.00;66.80;;;;;;5112282;28;20024;-75
2022/03/06 05:16:19;;;;;;;32.55;20.80;;;2.00;66.40;;;;;;5113607;28;20031;-75
2022/03/06 05:18:45;;;;;;;29.75;19.45;;;1.90;66.50;;;;;;5113332;28;20446;-76
2022/03/06 05:21:11;;;;;;;32.28;19.77;;;2.00;66.50;;;;;;5113354;28;20030;-75
2022/03/06 05:23:37;;;;;;;29.05;19.25;;;2.00;66.20;;;;;;5112185;28;20020;-75
2022/03/06 05:26:03;;;;;;;34.65;20.42;;;1.90;66.20;;;;;;5111877;28;20268;-74
2022/03/06 05:28:29;;;;;;;27.30;19.27;;;1.90;65.90;;;;;;5112594;28;20480;-74
2022/03/06 05:30:54;;;;;;;27.40;19.40;;;1.90;66.20;;;;;;5113620;28;20107;-74
2022/03/06 05:33:20;;;;;;;31.83;20.17;;;2.00;66.60;;;;;;5116128;28;20059;-73
2022/03/06 05:35:47;;;;;;;28.75;20.38;;;2.00;66.20;;;;;;5115432;28;20410;-73
2022/03/06 05:38:13;;;;;;;31.00;20.75;;;2.00;66.20;;;;;;5115639;28;20152;-75
2022/03/06 05:40:39;;;;;;;29.52;20.10;;;2.00;66.20;;;;;;5115828;28;20027;-75
2022/03/06 05:43:05;;;;;;;30.52;20.27;;;2.00;65.90;;;;;;5115119;27;20031;-73
2022/03/06 05:45:30;;;;;;;32.67;19.98;;;2.00;66.10;;;;;;5115680;28;20028;-73
2022/03/06 05:47:56;;;;;;;28.30;18.67;;;2.10;66.00;;;;;;5114799;28;20069;-74
2022/03/06 05:50:22;;;;;;;29.58;21.02;;;2.10;65.50;;;;;;5115129;28;20388;-74
2022/03/06 05:52:50;;;;;;;30.92;19.83;;;2.10;65.30;;;;;;5115187;28;20106;-74
2022/03/06 05:55:16;;;;;;;30.70;18.25;;;2.20;65.20;;;;;;5115236;28;20044;-75
2022/03/06 05:57:42;;;;;;;30.63;20.27;;;2.20;65.00;;;;;;5114855;28;20028;-75
2022/03/06 06:00:08;;;;;;;28.27;18.65;;;2.20;64.50;;;;;;5114604;28;20072;-74
2022/03/06 06:02:38;;;;;;;32.80;19.55;;;2.20;64.10;;;;;;5115685;28;20106;-74
2022/03/06 06:05:08;;;;;;;31.20;18.95;;;2.20;64.40;;;;;;5114552;28;20361;-74
2022/03/06 06:07:34;;;;;;;28.77;18.80;;;2.30;64.00;;;;;;5115467;28;20452;-75
2022/03/06 06:10:00;;;;;;;29.08;18.30;;;2.30;63.40;;;;;;5114750;28;20027;-74
2022/03/06 06:12:26;;;;;;;28.25;18.83;;;2.30;63.10;;;;;;5111774;28;20353;-74
2022/03/06 06:14:52;;;;;;;32.78;19.13;;;2.40;62.60;;;;;;5114342;28;20054;-74
2022/03/06 06:17:18;;;;;;;27.67;19.00;;;2.40;62.60;;;;;;5115159;28;20028;-76
2022/03/06 06:19:44;;;;;;;27.52;18.83;;;2.40;62.70;;;;;;5114805;28;20329;-76
2022/03/06 06:22:09;;;;;;;27.08;17.77;;;2.50;62.70;;;;;;5113156;28;20447;-75
2022/03/06 06:24:35;;;;;;;27.73;18.42;;;2.50;62.60;;;;;;5115067;28;20035;-74
2022/03/06 06:27:01;;;;;;;27.67;19.33;;;2.50;62.00;;;;;;5113060;28;20027;-75
2022/03/06 06:29:27;;;;;;;25.95;19.23;;;2.50;62.50;;;;;;5114731;28;20491;-75
2022/03/06 06:31:53;;;;;;;29.20;19.95;;;2.60;62.40;;;;;;5113867;28;20380;-76
2022/03/06 06:37:04;;;;;;;31.05;20.02;;;2.60;61.90;;;;;;5114366;28;20061;-75
2022/03/06 06:39:30;;;;;;;28.55;19.13;;;2.70;61.70;;;;;;5115118;28;20027;-76
2022/03/06 06:41:56;;;;;;;28.58;19.48;;;2.70;61.70;;;;;;5113319;28;20093;-76
2022/03/06 06:44:22;;;;;;;29.38;19.52;;;2.70;61.70;;;;;;5114533;28;20034;-74
2022/03/06 06:46:47;;;;;;;30.23;19.63;;;2.70;61.10;;;;;;5114491;28;20027;-76
2022/03/06 06:49:14;;;;;;;29.08;19.65;;;2.70;61.30;;;;;;5113815;28;20040;-75
2022/03/06 06:51:39;;;;;;;30.20;20.48;;;2.70;61.20;;;;;;5114301;28;20472;-76
2022/03/06 06:54:05;;;;;;;30.08;19.63;;;2.70;61.20;;;;;;5113328;28;20049;-75
2022/03/06 06:56:32;;;;;;;32.13;20.70;;;2.80;61.40;;;;;;5114220;28;20031;-75
2022/03/06 06:58:57;;;;;;;34.75;21.63;;;2.80;61.30;;;;;;5114148;28;20457;-75
2022/03/06 07:01:23;;;;;;;32.95;21.05;;;2.80;61.50;;;;;;5114728;28;20039;-74
2022/03/06 07:03:49;;;;;;;30.50;21.27;;;2.80;61.60;;;;;;5114056;28;20034;-77
2022/03/06 07:06:15;;;;;;;37.40;22.35;;;2.90;61.50;;;;;;5113900;28;20032;-75
2022/03/06 07:08:41;;;;;;;36.42;22.98;;;2.90;61.50;;;;;;5114280;28;20032;-75
2022/03/06 07:11:07;;;;;;;32.63;21.88;;;2.90;61.60;;;;;;5114687;28;20024;-75
2022/03/06 07:13:33;;;;;;;34.92;23.20;;;3.00;61.90;;;;;;5117358;27;20116;-75
2022/03/06 07:15:59;;;;;;;31.77;21.83;;;3.00;61.70;;;;;;5116395;28;20023;-76
2022/03/06 07:18:24;;;;;;;39.75;23.70;;;3.00;62.10;;;;;;5115952;28;20028;-76
2022/03/06 07:20:50;;;;;;;33.78;22.73;;;3.00;61.60;;;;;;5133623;28;20049;-78
2022/03/06 07:23:16;;;;;;;35.67;22.80;;;3.10;62.00;;;;;;5135674;28;20089;-75
2022/03/06 07:25:42;;;;;;;34.35;22.27;;;3.10;62.10;;;;;;5127390;28;20023;-75
2022/03/06 07:28:07;;;;;;;39.85;25.45;;;3.10;61.70;;;;;;5116390;28;20071;-75
2022/03/06 07:30:34;;;;;;;35.95;23.75;;;3.10;61.50;;;;;;5115442;28;20403;-75
2022/03/06 07:33:00;;;;;;;37.58;23.80;;;3.20;61.60;;;;;;5113683;28;20031;-74
2022/03/06 07:35:26;;;;;;;34.88;23.70;;;3.20;61.90;;;;;;5113946;28;20115;-74
2022/03/06 07:37:52;;;;;;;34.70;22.70;;;3.30;61.80;;;;;;5113719;28;20106;-76
2022/03/06 07:40:18;;;;;;;32.92;22.65;;;3.40;61.60;;;;;;5114194;28;20122;-75
2022/03/06 07:42:44;;;;;;;35.83;22.35;;;3.60;61.80;;;;;;5113455;28;20376;-74
2022/03/06 07:45:10;;;;;;;32.63;21.17;;;4.00;61.00;;;;;;5113516;28;20036;-76
2022/03/06 07:47:37;;;;;;;34.03;21.38;;;4.30;59.90;;;;;;5112778;28;20045;-74
2022/03/06 07:50:04;;;;;;;33.42;21.98;;;4.60;58.20;;;;;;5112547;27;20478;-74
2022/03/06 07:52:29;;;;;;;35.15;21.25;;;4.90;57.50;;;;;;5113385;28;20417;-75
2022/03/06 07:54:55;;;;;;;29.02;20.38;;;5.20;56.10;;;;;;5111692;28;20051;-75
2022/03/06 07:57:21;;;;;;;26.95;19.63;;;5.50;55.70;;;;;;5113385;28;20098;-76
2022/03/06 07:59:46;;;;;;;30.80;19.88;;;5.80;54.30;;;;;;5113239;28;20024;-74
2022/03/06 08:02:12;;;;;;;26.40;20.02;;;6.10;52.30;;;;;;5110282;28;20392;-75
2022/03/06 08:04:38;;;;;;;30.77;19.77;;;6.30;51.30;;;;;;5112991;28;20027;-73
2022/03/06 08:07:05;;;;;;;30.42;19.38;;;6.50;51.30;;;;;;5112453;28;20028;-74
2022/03/06 08:09:30;;;;;;;26.95;18.52;;;6.80;50.70;;;;;;5112840;28;20037;-73
2022/03/06 08:11:56;;;;;;;25.23;17.27;;;7.00;49.20;;;;;;5112525;28;20024;-75
2022/03/06 08:14:21;;;;;;;24.00;17.58;;;7.10;48.00;;;;;;5112785;28;20574;-74
2022/03/06 08:16:47;;;;;;;25.35;18.52;;;7.30;47.90;;;;;;5112983;28;20111;-74
2022/03/06 08:19:13;;;;;;;28.85;18.90;;;7.40;47.50;;;;;;5111906;28;20027;-74
2022/03/06 08:21:39;;;;;;;30.13;19.63;;;7.40;46.70;;;;;;5112514;28;20059;-75
2022/03/06 08:24:05;;;;;;;27.35;18.83;;;7.40;46.30;;;;;;5112004;28;20028;-75
2022/03/06 08:26:31;;;;;;;26.23;18.08;;;7.20;46.40;;;;;;5112794;28;20089;-75
2022/03/06 08:28:57;;;;;;;33.40;19.83;;;7.20;46.90;;;;;;5111825;28;20038;-76
2022/03/06 08:31:23;;;;;;;30.48;19.83;;;7.10;46.80;;;;;;5111650;28;20028;-79
2022/03/06 08:33:48;;;;;;;27.88;19.45;;;7.10;47.10;;;;;;5113533;28;20068;-78
2022/03/06 08:36:15;;;;;;;31.85;20.85;;;7.00;47.40;;;;;;5112118;28;20020;-77
2022/03/06 08:38:41;;;;;;;26.83;19.35;;;7.00;47.70;;;;;;5111635;28;20092;-78
2022/03/06 08:41:07;;;;;;;30.02;21.05;;;6.90;47.70;;;;;;5111555;28;20449;-80
2022/03/06 08:43:32;;;;;;;29.13;19.27;;;7.00;48.40;;;;;;5113130;28;20036;-80
2022/03/06 08:45:58;;;;;;;29.85;20.52;;;6.90;47.20;;;;;;5111657;28;20066;-78
2022/03/06 08:48:24;;;;;;;29.02;20.45;;;6.90;47.70;;;;;;5112095;28;20396;-78
2022/03/06 08:50:50;;;;;;;29.42;20.35;;;6.90;48.30;;;;;;5112822;28;20031;-79
2022/03/06 08:53:16;;;;;;;29.90;21.95;;;6.90;48.50;;;;;;5111572;28;20028;-78
2022/03/06 08:55:42;;;;;;;32.58;20.48;;;6.90;47.50;;;;;;5112583;28;20048;-79
2022/03/06 08:58:08;;;;;;;26.80;19.17;;;6.90;47.90;;;;;;5112278;28;20027;-78
2022/03/06 09:00:33;;;;;;;28.02;19.98;;;6.90;47.00;;;;;;5112167;28;20034;-81
2022/03/06 09:02:59;;;;;;;29.45;19.55;;;6.90;46.90;;;;;;5110792;28;20052;-81
2022/03/06 09:05:25;;;;;;;29.05;19.60;;;6.90;46.80;;;;;;5111984;28;20028;-83
2022/03/06 09:07:50;;;;;;;28.27;19.52;;;6.90;47.00;;;;;;5116203;28;20077;-83
2022/03/06 09:10:16;;;;;;;27.38;19.33;;;6.90;47.20;;;;;;5115983;28;20433;-80
2022/03/06 09:12:42;;;;;;;24.48;16.70;;;6.90;46.90;;;;;;5114772;28;20027;-80
2022/03/06 09:15:09;;;;;;;25.73;16.08;;;6.80;46.10;;;;;;5114537;28;20198;-80
2022/03/06 09:17:35;;;;;;;24.10;16.77;;;6.80;44.80;;;;;;5115174;28;20019;-79
2022/03/06 09:20:03;;;;;;;25.45;16.75;;;6.70;44.80;;;;;;5115750;27;20024;-78
2022/03/06 09:22:29;;;;;;;22.35;16.38;;;6.80;45.10;;;;;;5116174;28;20492;-79
2022/03/06 09:24:54;;;;;;;27.83;17.00;;;7.00;45.30;;;;;;5114951;28;20028;-79
2022/03/06 09:27:20;;;;;;;25.30;16.75;;;7.20;44.90;;;;;;5115882;28;20102;-81
2022/03/06 09:29:45;;;;;;;25.65;17.40;;;7.20;44.50;;;;;;5115828;28;20046;-80
2022/03/06 09:32:11;;;;;;;25.00;16.65;;;7.20;44.40;;;;;;5115580;28;20054;-81
2022/03/06 09:34:37;;;;;;;24.08;16.05;;;7.30;44.70;;;;;;5115919;28;20019;-80
2022/03/06 09:39:47;;;;;;;26.02;14.32;;;7.40;43.00;;;;;;5114763;28;20162;-79
2022/03/06 09:42:15;;;;;;;18.90;12.65;;;7.50;42.50;;;;;;5117463;28;20019;-80
2022/03/06 09:44:42;;;;;;;17.08;12.40;;;7.50;41.40;;;;;;5112985;28;20153;-80
2022/03/06 09:47:08;;;;;;;20.20;13.57;;;7.50;40.50;;;;;;5114035;28;20015;-80
2022/03/06 09:49:33;;;;;;;17.77;13.27;;;7.60;41.20;;;;;;5114218;27;20116;-79
2022/03/06 09:52:02;;;;;;;19.27;12.63;;;7.60;40.70;;;;;;5113696;28;20102;-79
2022/03/06 09:54:28;;;;;;;18.45;13.68;;;7.60;40.30;;;;;;5114307;28;20067;-79
2022/03/06 09:56:55;;;;;;;17.40;13.48;;;7.60;40.50;;;;;;5115212;28;20039;-79
2022/03/06 09:59:21;;;;;;;18.08;13.15;;;7.60;40.60;;;;;;5113047;28;20079;-80
2022/03/06 10:01:46;;;;;;;17.98;13.35;;;7.70;40.90;;;;;;5114098;28;20106;-79
2022/03/06 10:04:34;;;;;;;20.17;13.43;;;7.80;40.40;;;;;;5113282;28;20055;-81
2022/03/06 10:07:02;;;;;;;19.45;13.50;;;7.90;40.20;;;;;;5112482;28;20408;-80
2022/03/06 10:09:28;;;;;;;18.88;12.70;;;8.00;39.70;;;;;;5112651;28;20024;-79
2022/03/06 10:11:54;;;;;;;16.52;11.98;;;8.00;39.80;;;;;;5114010;28;20030;-79
2022/03/06 10:14:33;;;;;;;17.98;12.60;;;7.90;39.40;;;;;;5113430;28;20035;-79
2022/03/06 10:17:17;;;;;;;19.58;14.40;;;8.00;39.50;;;;;;5112169;28;20023;-80
2022/03/06 10:19:54;;;;;;;16.48;13.02;;;7.90;39.30;;;;;;5114176;28;20031;-79
2022/03/06 10:22:22;;;;;;;16.73;12.70;;;7.70;39.50;;;;;;5114795;28;20032;-79
2022/03/06 10:24:49;;;;;;;19.38;14.27;;;7.70;40.00;;;;;;5115194;28;20020;-79
2022/03/06 10:27:15;;;;;;;19.20;13.68;;;7.60;40.20;;;;;;5114471;28;20023;-79
2022/03/06 10:29:41;;;;;;;21.33;15.00;;;7.70;40.50;;;;;;5115416;27;20590;-79
2022/03/06 10:32:07;;;;;;;22.73;14.43;;;7.70;41.10;;;;;;5123817;27;20023;-79
2022/03/06 10:34:40;;;;;;;19.88;14.82;;;7.70;40.10;;;;;;5134496;27;20026;-78
2022/03/06 10:37:06;;;;;;;19.75;14.88;;;7.60;40.20;;;;;;5134219;27;20058;-78
2022/03/06 10:39:45;;;;;;;21.88;15.30;;;7.70;40.50;;;;;;5134502;27;20059;-78
2022/03/06 10:42:11;;;;;;;20.10;14.82;;;7.80;40.40;;;;;;5134000;27;20572;-77
2022/03/06 10:44:47;;;;;;;23.65;15.60;;;7.80;40.10;;;;;;5134338;27;20102;-79
2022/03/06 10:47:13;;;;;;;19.05;13.57;;;7.90;39.80;;;;;;5132536;27;20357;-80
2022/03/06 10:49:39;;;;;;;18.20;13.95;;;8.00;40.10;;;;;;5135113;27;20042;-78
2022/03/06 10:52:19;;;;;;;20.73;14.27;;;8.00;39.40;;;;;;5133570;27;20034;-78
2022/03/06 10:54:56;;;;;;;19.98;15.00;;;8.10;39.60;;;;;;5133734;27;20066;-78
2022/03/06 11:00:07;;;;;;;23.05;15.63;;;8.10;38.80;;;;;;5133635;27;20034;-80
2022/03/06 11:02:35;;;;;;;21.92;15.07;;;8.00;39.00;;;;;;5134293;27;20031;-79
2022/03/06 11:05:02;;;;;;;22.08;15.30;;;7.90;39.20;;;;;;5133029;27;20034;-78
2022/03/06 11:07:29;;;;;;;21.83;16.10;;;7.90;39.70;;;;;;5133018;27;20023;-80
2022/03/06 11:09:59;;;;;;;19.77;14.30;;;7.90;39.60;;;;;;5134499;27;20027;-79
2022/03/06 11:12:25;;;;;;;18.63;14.00;;;7.90;39.10;;;;;;5134708;27;20023;-79
2022/03/06 11:14:51;;;;;;;17.17;14.27;;;7.80;38.90;;;;;;5134829;27;20466;-79
2022/03/06 11:17:17;;;;;;;20.23;14.27;;;7.70;38.80;;;;;;5135600;27;20311;-80
2022/03/06 11:19:43;;;;;;;21.83;14.55;;;7.50;39.30;;;;;;5121943;27;20073;-78
2022/03/06 11:22:19;;;;;;;22.55;15.77;;;7.40;40.00;;;;;;5111458;28;20460;-78
2022/03/06 11:24:55;;;;;;;23.85;16.05;;;7.20;40.90;;;;;;5113523;28;20019;-79
2022/03/06 11:27:48;;;;;;;22.90;15.43;;;7.10;41.20;;;;;;5114627;28;20027;-79
2022/03/06 11:30:20;;;;;;;21.13;14.65;;;7.00;41.00;;;;;;5112458;28;20031;-79
2022/03/06 11:33:06;;;;;;;20.15;14.00;;;7.00;41.30;;;;;;5112892;27;20034;-78
2022/03/06 11:35:41;;;;;;;19.20;13.95;;;7.00;41.40;;;;;;5112380;28;20198;-77
2022/03/06 11:38:08;;;;;;;19.70;13.55;;;6.90;40.70;;;;;;5111572;28;20496;-79
2022/03/06 11:40:44;;;;;;;18.70;14.10;;;6.90;40.40;;;;;;5112787;28;20023;-78
2022/03/06 11:43:29;;;;;;;21.02;14.50;;;6.90;40.60;;;;;;5112020;28;20024;-78
2022/03/06 11:45:58;;;;;;;18.92;13.20;;;6.90;40.70;;;;;;5112506;28;20602;-78
2022/03/06 11:48:26;;;;;;;21.85;14.88;;;6.90;40.30;;;;;;5112512;28;20106;-77
2022/03/06 11:51:29;;;;;;;21.85;14.38;;;6.70;40.60;;;;;;5112657;28;20020;-77
2022/03/06 11:54:09;;;;;;;18.85;14.60;;;6.50;41.30;;;;;;5112571;28;20027;-79
2022/03/06 11:56:35;;;;;;;20.02;15.25;;;6.60;42.70;;;;;;5112659;28;20043;-78
2022/03/06 11:59:32;;;;;;;24.48;15.82;;;6.50;42.70;;;;;;5112107;28;20474;-79
2022/03/06 12:02:01;;;;;;;24.30;16.83;;;6.50;42.90;;;;;;5094688;28;20515;-79
2022/03/06 12:04:39;;;;;;;21.70;15.60;;;6.40;42.30;;;;;;5112461;28;20023;-79
2022/03/06 12:07:07;;;;;;;26.73;16.05;;;6.40;42.50;;;;;;5110965;28;20027;-79
2022/03/06 12:09:37;;;;;;;22.85;15.38;;;6.30;42.20;;;;;;5110819;28;20038;-79
2022/03/06 12:12:06;;;;;;;23.17;16.23;;;6.20;42.40;;;;;;5111558;28;20077;-78
2022/03/06 12:14:36;;;;;;;22.45;16.55;;;6.20;42.60;;;;;;5112268;28;20103;-78
2022/03/06 12:17:04;;;;;;;22.33;16.00;;;6.10;42.50;;;;;;5111533;28;20062;-78
2022/03/06 12:19:32;;;;;;;21.83;15.82;;;6.10;42.90;;;;;;5112210;28;20398;-78
2022/03/06 12:22:16;;;;;;;23.67;15.63;;;6.10;42.70;;;;;;5112948;28;20020;-78
2022/03/06 12:24:44;;;;;;;23.98;17.00;;;6.00;43.10;;;;;;5114038;28;20031;-79
2022/03/06 12:27:32;;;;;;;24.25;17.17;;;6.00;43.90;;;;;;5115990;28;20019;-80
2022/03/06 12:30:00;;;;;;;23.08;16.48;;;6.00;44.20;;;;;;5117597;28;20054;-80
2022/03/06 12:32:29;;;;;;;23.20;16.48;;;6.00;43.70;;;;;;5103912;28;20020;-78
2022/03/06 12:35:08;;;;;;;22.95;15.30;;;6.00;44.10;;;;;;5105590;28;20361;-78
2022/03/06 12:37:37;;;;;;;21.33;15.45;;;6.10;43.20;;;;;;5104656;28;20028;-80
2022/03/06 12:40:06;;;;;;;21.27;15.18;;;6.20;43.40;;;;;;5103625;28;20093;-79
2022/03/06 12:42:34;;;;;;;21.20;15.50;;;6.20;42.60;;;;;;5114148;28;20020;-79
2022/03/06 12:45:03;;;;;;;25.55;16.80;;;6.20;42.80;;;;;;5117124;28;20159;-79